sensor_id;sensor_type;location;lat;lon;timestamp;P1;P2;P0
49778;PMS5003;36217;60.232;24.776;2022-11-02T00:00:24;3;2;
49778;PMS5003;36217;60.232;24.776;2022-11-02T00:02:56;2;2;
49778;PMS5003;36217;60.232;24.776;2022-11-02T00:05:23;1;1;
49778;PMS5003;36217;60.232;24.776;2022-11-02T00:07:51;2;2;
49778;PMS5003;36217;60.232;24.776;2022-11-02T00:10:19;2;2;
49778;PMS5003;36217;60.232;24.776;2022-11-02T00:12:47;2;2;
49778;PMS5003;36217;60.232;24.776;2022-11-02T00:15:15;2;2;
49778;PMS5003;36217;60.232;24.776;2022-11-02T00:17:42;2;2;
49778;PMS5003;36217;60.232;24.776;2022-11-02T00:20:12;3;3;
49778;PMS5003;36217;60.232;24.776;2022-11-02T00:22:42;4;2;
49778;PMS5003;36217;60.232;24.776;2022-11-02T00:25:11;2;2;
49778;PMS5003;36217;60.232;24.776;2022-11-02T00:27:41;2;2;
49778;PMS5003;36217;60.232;24.776;2022-11-02T00:30:09;3;3;
49778;PMS5003;36217;60.232;24.776;2022-11-02T00:32:36;3;2;
49778;PMS5003;36217;60.232;24.776;2022-11-02T00:35:04;1;1;
49778;PMS5003;36217;60.232;24.776;2022-11-02T00:37:31;2;2;
49778;PMS5003;36217;60.232;24.776;2022-11-02T00:39:58;1;1;
49778;PMS5003;36217;60.232;24.776;2022-11-02T00:42:25;1;1;
49778;PMS5003;36217;60.232;24.776;2022-11-02T00:44:52;3;3;
49778;PMS5003;36217;60.232;24.776;2022-11-02T00:47:19;2;2;
49778;PMS5003;36217;60.232;24.776;2022-11-02T00:49:46;2;2;
49778;PMS5003;36217;60.232;24.776;2022-11-02T00:52:13;2;2;
49778;PMS5003;36217;60.232;24.776;2022-11-02T00:54:40;2;2;
49778;PMS5003;36217;60.232;24.776;2022-11-02T00:57:07;1;1;
49778;PMS5003;36217;60.232;24.776;2022-11-02T00:59:34;2;2;
49778;PMS5003;36217;60.232;24.776;2022-11-02T01:02:01;1;1;
49778;PMS5003;36217;60.232;24.776;2022-11-02T01:04:28;1;1;
49778;PMS5003;36217;60.232;24.776;2022-11-02T01:06:55;1;1;
49778;PMS5003;36217;60.232;24.776;2022-11-02T01:09:22;2;2;
49778;PMS5003;36217;60.232;24.776;2022-11-02T01:11:50;1;1;
49778;PMS5003;36217;60.232;24.776;2022-11-02T01:14:17;1;1;
49778;PMS5003;36217;60.232;24.776;2022-11-02T01:16:44;1;1;
49778;PMS5003;36217;60.232;24.776;2022-11-02T01:19:11;2;2;
49778;PMS5003;36217;60.232;24.776;2022-11-02T01:21:38;1;1;
49778;PMS5003;36217;60.232;24.776;2022-11-02T01:24:06;5;3;
49778;PMS5003;36217;60.232;24.776;2022-11-02T01:26:33;2;2;
49778;PMS5003;36217;60.232;24.776;2022-11-02T01:29:00;4;2;
49778;PMS5003;36217;60.232;24.776;2022-11-02T01:31:27;2;2;
49778;PMS5003;36217;60.232;24.776;2022-11-02T01:33:54;2;2;
49778;PMS5003;36217;60.232;24.776;2022-11-02T01:36:21;1;1;
49778;PMS5003;36217;60.232;24.776;2022-11-02T01:38:49;2;2;
49778;PMS5003;36217;60.232;24.776;2022-11-02T01:41:16;2;2;
49778;PMS5003;36217;60.232;24.776;2022-11-02T01:43:43;3;1;
49778;PMS5003;36217;60.232;24.776;2022-11-02T01:46:13;3;3;
49778;PMS5003;36217;60.232;24.776;2022-11-02T01:48:45;1;1;
49778;PMS5003;36217;60.232;24.776;2022-11-02T01:51:15;1;1;
49778;PMS5003;36217;60.232;24.776;2022-11-02T01:53:46;1;1;
49778;PMS5003;36217;60.232;24.776;2022-11-02T01:56:15;2;2;
49778;PMS5003;36217;60.232;24.776;2022-11-02T01:58:44;2;2;
49778;PMS5003;36217;60.232;24.776;2022-11-02T02:01:17;1;1;
49778;PMS5003;36217;60.232;24.776;2022-11-02T02:03:44;2;2;
49778;PMS5003;36217;60.232;24.776;2022-11-02T02:06:12;2;2;
49778;PMS5003;36217;60.232;24.776;2022-11-02T02:08:42;1;1;
49778;PMS5003;36217;60.232;24.776;2022-11-02T02:11:20;1;1;
49778;PMS5003;36217;60.232;24.776;2022-11-02T02:13:51;0;0;
49778;PMS5003;36217;60.232;24.776;2022-11-02T02:16:20;1;1;
49778;PMS5003;36217;60.232;24.776;2022-11-02T02:18:58;2;2;
49778;PMS5003;36217;60.232;24.776;2022-11-02T02:21:32;2;2;
49778;PMS5003;36217;60.232;24.776;2022-11-02T02:24:19;3;3;
49778;PMS5003;36217;60.232;24.776;2022-11-02T02:27:10;1;1;
49778;PMS5003;36217;60.232;24.776;2022-11-02T02:29:45;1;1;
49778;PMS5003;36217;60.232;24.776;2022-11-02T02:32:20;1;1;
49778;PMS5003;36217;60.232;24.776;2022-11-02T02:34:53;2;1;
49778;PMS5003;36217;60.232;24.776;2022-11-02T02:37:25;0;0;
49778;PMS5003;36217;60.232;24.776;2022-11-02T02:39:59;2;2;
49778;PMS5003;36217;60.232;24.776;2022-11-02T02:42:38;2;1;
49778;PMS5003;36217;60.232;24.776;2022-11-02T02:45:10;1;1;
49778;PMS5003;36217;60.232;24.776;2022-11-02T02:47:44;1;1;
49778;PMS5003;36217;60.232;24.776;2022-11-02T02:50:16;1;1;
49778;PMS5003;36217;60.232;24.776;2022-11-02T02:52:46;1;1;
49778;PMS5003;36217;60.232;24.776;2022-11-02T02:55:16;2;2;
49778;PMS5003;36217;60.232;24.776;2022-11-02T02:57:48;1;1;
49778;PMS5003;36217;60.232;24.776;2022-11-02T03:00:22;1;1;
49778;PMS5003;36217;60.232;24.776;2022-11-02T03:02:49;0;0;
49778;PMS5003;36217;60.232;24.776;2022-11-02T03:05:21;0;0;
49778;PMS5003;36217;60.232;24.776;2022-11-02T03:07:49;1;1;
49778;PMS5003;36217;60.232;24.776;2022-11-02T03:10:19;0;0;
49778;PMS5003;36217;60.232;24.776;2022-11-02T03:12:51;1;1;
49778;PMS5003;36217;60.232;24.776;2022-11-02T03:15:29;2;2;
49778;PMS5003;36217;60.232;24.776;2022-11-02T03:18:05;1;1;
49778;PMS5003;36217;60.232;24.776;2022-11-02T03:20:42;2;1;
49778;PMS5003;36217;60.232;24.776;2022-11-02T03:23:21;0;0;
49778;PMS5003;36217;60.232;24.776;2022-11-02T03:25:57;0;0;
49778;PMS5003;36217;60.232;24.776;2022-11-02T03:28:30;0;0;
49778;PMS5003;36217;60.232;24.776;2022-11-02T03:31:08;1;1;
49778;PMS5003;36217;60.232;24.776;2022-11-02T03:33:42;0;0;
49778;PMS5003;36217;60.232;24.776;2022-11-02T03:36:15;1;1;
49778;PMS5003;36217;60.232;24.776;2022-11-02T03:38:48;0;0;
49778;PMS5003;36217;60.232;24.776;2022-11-02T03:41:21;1;1;
49778;PMS5003;36217;60.232;24.776;2022-11-02T03:43:50;1;1;
49778;PMS5003;36217;60.232;24.776;2022-11-02T03:46:23;0;0;
49778;PMS5003;36217;60.232;24.776;2022-11-02T03:48:51;1;1;
49778;PMS5003;36217;60.232;24.776;2022-11-02T03:51:21;0;0;
49778;PMS5003;36217;60.232;24.776;2022-11-02T03:53:52;2;0;
49778;PMS5003;36217;60.232;24.776;2022-11-02T03:56:24;2;1;
49778;PMS5003;36217;60.232;24.776;2022-11-02T03:58:55;1;1;
49778;PMS5003;36217;60.232;24.776;2022-11-02T04:01:22;2;0;
49778;PMS5003;36217;60.232;24.776;2022-11-02T04:03:51;0;0;
49778;PMS5003;36217;60.232;24.776;2022-11-02T04:06:19;0;0;
49778;PMS5003;36217;60.232;24.776;2022-11-02T04:08:46;0;0;
49778;PMS5003;36217;60.232;24.776;2022-11-02T04:11:15;1;1;
49778;PMS5003;36217;60.232;24.776;2022-11-02T04:13:41;1;1;
49778;PMS5003;36217;60.232;24.776;2022-11-02T04:16:14;1;1;
49778;PMS5003;36217;60.232;24.776;2022-11-02T04:18:42;0;0;
49778;PMS5003;36217;60.232;24.776;2022-11-02T04:21:09;0;0;
49778;PMS5003;36217;60.232;24.776;2022-11-02T04:23:36;1;1;
49778;PMS5003;36217;60.232;24.776;2022-11-02T04:26:03;0;0;
49778;PMS5003;36217;60.232;24.776;2022-11-02T04:28:30;1;1;
49778;PMS5003;36217;60.232;24.776;2022-11-02T04:30:58;1;1;
49778;PMS5003;36217;60.232;24.776;2022-11-02T04:33:25;1;1;
49778;PMS5003;36217;60.232;24.776;2022-11-02T04:35:51;1;1;
49778;PMS5003;36217;60.232;24.776;2022-11-02T04:38:18;1;1;
49778;PMS5003;36217;60.232;24.776;2022-11-02T04:40:45;1;1;
49778;PMS5003;36217;60.232;24.776;2022-11-02T04:43:12;5;3;
49778;PMS5003;36217;60.232;24.776;2022-11-02T04:45:40;2;2;
49778;PMS5003;36217;60.232;24.776;2022-11-02T04:48:07;6;5;
49778;PMS5003;36217;60.232;24.776;2022-11-02T04:50:35;8;5;
49778;PMS5003;36217;60.232;24.776;2022-11-02T04:53:03;4;4;
49778;PMS5003;36217;60.232;24.776;2022-11-02T04:55:31;6;4;
49778;PMS5003;36217;60.232;24.776;2022-11-02T04:57:59;6;6;
49778;PMS5003;36217;60.232;24.776;2022-11-02T05:00:26;10;5;
49778;PMS5003;36217;60.232;24.776;2022-11-02T05:02:53;8;7;
49778;PMS5003;36217;60.232;24.776;2022-11-02T05:05:20;13;10;
49778;PMS5003;36217;60.232;24.776;2022-11-02T05:07:47;9;9;
49778;PMS5003;36217;60.232;24.776;2022-11-02T05:10:13;11;11;
49778;PMS5003;36217;60.232;24.776;2022-11-02T05:12:40;11;8;
49778;PMS5003;36217;60.232;24.776;2022-11-02T05:15:08;12;7;
49778;PMS5003;36217;60.232;24.776;2022-11-02T05:17:35;12;10;
49778;PMS5003;36217;60.232;24.776;2022-11-02T05:20:02;16;14;
49778;PMS5003;36217;60.232;24.776;2022-11-02T05:22:30;15;11;
49778;PMS5003;36217;60.232;24.776;2022-11-02T05:24:57;11;9;
49778;PMS5003;36217;60.232;24.776;2022-11-02T05:27:29;15;11;
49778;PMS5003;36217;60.232;24.776;2022-11-02T05:29:56;13;11;
49778;PMS5003;36217;60.232;24.776;2022-11-02T05:32:23;10;10;
49778;PMS5003;36217;60.232;24.776;2022-11-02T05:34:50;17;12;
49778;PMS5003;36217;60.232;24.776;2022-11-02T05:37:17;18;11;
49778;PMS5003;36217;60.232;24.776;2022-11-02T05:39:44;12;10;
49778;PMS5003;36217;60.232;24.776;2022-11-02T05:42:11;18;12;
49778;PMS5003;36217;60.232;24.776;2022-11-02T05:44:39;21;18;
49778;PMS5003;36217;60.232;24.776;2022-11-02T05:47:06;15;14;
49778;PMS5003;36217;60.232;24.776;2022-11-02T05:49:33;15;13;
49778;PMS5003;36217;60.232;24.776;2022-11-02T05:52:01;13;13;
49778;PMS5003;36217;60.232;24.776;2022-11-02T05:54:29;20;19;
49778;PMS5003;36217;60.232;24.776;2022-11-02T05:56:56;20;16;
49778;PMS5003;36217;60.232;24.776;2022-11-02T05:59:23;20;14;
49778;PMS5003;36217;60.232;24.776;2022-11-02T06:01:50;22;19;
49778;PMS5003;36217;60.232;24.776;2022-11-02T06:04:17;24;22;
49778;PMS5003;36217;60.232;24.776;2022-11-02T06:06:44;26;23;
49778;PMS5003;36217;60.232;24.776;2022-11-02T06:09:12;20;19;
49778;PMS5003;36217;60.232;24.776;2022-11-02T06:11:39;27;26;
49778;PMS5003;36217;60.232;24.776;2022-11-02T06:14:06;25;23;
49778;PMS5003;36217;60.232;24.776;2022-11-02T06:16:33;25;22;
49778;PMS5003;36217;60.232;24.776;2022-11-02T06:19:00;30;28;
49778;PMS5003;36217;60.232;24.776;2022-11-02T06:21:28;23;22;
49778;PMS5003;36217;60.232;24.776;2022-11-02T06:23:54;28;26;
49778;PMS5003;36217;60.232;24.776;2022-11-02T06:26:21;31;29;
49778;PMS5003;36217;60.232;24.776;2022-11-02T06:28:48;38;29;
49778;PMS5003;36217;60.232;24.776;2022-11-02T06:31:15;29;29;
49778;PMS5003;36217;60.232;24.776;2022-11-02T06:33:42;29;28;
49778;PMS5003;36217;60.232;24.776;2022-11-02T06:36:09;26;26;
49778;PMS5003;36217;60.232;24.776;2022-11-02T06:38:37;33;29;
49778;PMS5003;36217;60.232;24.776;2022-11-02T06:41:03;35;30;
49778;PMS5003;36217;60.232;24.776;2022-11-02T06:43:31;33;29;
49778;PMS5003;36217;60.232;24.776;2022-11-02T06:45:58;33;29;
49778;PMS5003;36217;60.232;24.776;2022-11-02T06:48:25;24;23;
49778;PMS5003;36217;60.232;24.776;2022-11-02T06:50:53;31;30;
49778;PMS5003;36217;60.232;24.776;2022-11-02T06:53:20;33;29;
49778;PMS5003;36217;60.232;24.776;2022-11-02T06:55:50;30;30;
49778;PMS5003;36217;60.232;24.776;2022-11-02T06:58:18;21;21;
49778;PMS5003;36217;60.232;24.776;2022-11-02T07:00:45;27;25;
49778;PMS5003;36217;60.232;24.776;2022-11-02T07:03:12;25;23;
49778;PMS5003;36217;60.232;24.776;2022-11-02T07:05:40;27;27;
49778;PMS5003;36217;60.232;24.776;2022-11-02T07:08:12;23;21;
49778;PMS5003;36217;60.232;24.776;2022-11-02T07:10:39;29;24;
49778;PMS5003;36217;60.232;24.776;2022-11-02T07:13:07;20;17;
49778;PMS5003;36217;60.232;24.776;2022-11-02T07:15:39;23;15;
49778;PMS5003;36217;60.232;24.776;2022-11-02T07:18:07;23;16;
49778;PMS5003;36217;60.232;24.776;2022-11-02T07:20:34;16;13;
49778;PMS5003;36217;60.232;24.776;2022-11-02T07:23:02;19;19;
49778;PMS5003;36217;60.232;24.776;2022-11-02T07:25:29;15;15;
49778;PMS5003;36217;60.232;24.776;2022-11-02T07:27:57;17;14;
49778;PMS5003;36217;60.232;24.776;2022-11-02T07:30:25;17;15;
49778;PMS5003;36217;60.232;24.776;2022-11-02T07:32:52;14;14;
49778;PMS5003;36217;60.232;24.776;2022-11-02T07:35:19;10;8;
49778;PMS5003;36217;60.232;24.776;2022-11-02T07:37:55;11;10;
49778;PMS5003;36217;60.232;24.776;2022-11-02T07:40:22;12;12;
49778;PMS5003;36217;60.232;24.776;2022-11-02T07:42:49;8;7;
49778;PMS5003;36217;60.232;24.776;2022-11-02T07:45:16;7;7;
49778;PMS5003;36217;60.232;24.776;2022-11-02T07:47:44;10;8;
49778;PMS5003;36217;60.232;24.776;2022-11-02T07:50:12;11;10;
49778;PMS5003;36217;60.232;24.776;2022-11-02T07:52:43;7;7;
49778;PMS5003;36217;60.232;24.776;2022-11-02T07:55:11;8;8;
49778;PMS5003;36217;60.232;24.776;2022-11-02T07:57:38;12;10;
49778;PMS5003;36217;60.232;24.776;2022-11-02T08:00:10;8;8;
49778;PMS5003;36217;60.232;24.776;2022-11-02T08:02:37;15;11;
49778;PMS5003;36217;60.232;24.776;2022-11-02T08:05:04;13;12;
49778;PMS5003;36217;60.232;24.776;2022-11-02T08:07:32;8;7;
49778;PMS5003;36217;60.232;24.776;2022-11-02T08:09:59;8;7;
49778;PMS5003;36217;60.232;24.776;2022-11-02T08:12:26;11;10;
49778;PMS5003;36217;60.232;24.776;2022-11-02T08:14:54;9;7;
49778;PMS5003;36217;60.232;24.776;2022-11-02T08:17:21;6;6;
49778;PMS5003;36217;60.232;24.776;2022-11-02T08:19:48;11;7;
49778;PMS5003;36217;60.232;24.776;2022-11-02T08:22:15;6;5;
49778;PMS5003;36217;60.232;24.776;2022-11-02T08:24:42;11;11;
49778;PMS5003;36217;60.232;24.776;2022-11-02T08:27:09;10;7;
49778;PMS5003;36217;60.232;24.776;2022-11-02T08:29:36;6;6;
49778;PMS5003;36217;60.232;24.776;2022-11-02T08:32:03;6;5;
49778;PMS5003;36217;60.232;24.776;2022-11-02T08:34:31;13;6;
49778;PMS5003;36217;60.232;24.776;2022-11-02T08:36:58;7;6;
49778;PMS5003;36217;60.232;24.776;2022-11-02T08:39:25;5;5;
49778;PMS5003;36217;60.232;24.776;2022-11-02T08:41:52;7;5;
49778;PMS5003;36217;60.232;24.776;2022-11-02T08:44:19;9;9;
49778;PMS5003;36217;60.232;24.776;2022-11-02T08:46:47;4;4;
49778;PMS5003;36217;60.232;24.776;2022-11-02T08:49:14;3;3;
49778;PMS5003;36217;60.232;24.776;2022-11-02T08:51:40;8;7;
49778;PMS5003;36217;60.232;24.776;2022-11-02T08:54:07;4;3;
49778;PMS5003;36217;60.232;24.776;2022-11-02T08:56:34;4;4;
49778;PMS5003;36217;60.232;24.776;2022-11-02T08:59:01;4;3;
49778;PMS5003;36217;60.232;24.776;2022-11-02T09:01:28;1;1;
49778;PMS5003;36217;60.232;24.776;2022-11-02T09:03:55;5;4;
49778;PMS5003;36217;60.232;24.776;2022-11-02T09:06:22;5;4;
49778;PMS5003;36217;60.232;24.776;2022-11-02T09:08:49;3;3;
49778;PMS5003;36217;60.232;24.776;2022-11-02T09:11:16;2;2;
49778;PMS5003;36217;60.232;24.776;2022-11-02T09:13:43;5;5;
49778;PMS5003;36217;60.232;24.776;2022-11-02T09:16:10;2;2;
49778;PMS5003;36217;60.232;24.776;2022-11-02T09:18:37;5;3;
49778;PMS5003;36217;60.232;24.776;2022-11-02T09:21:04;2;2;
49778;PMS5003;36217;60.232;24.776;2022-11-02T09:23:31;2;2;
49778;PMS5003;36217;60.232;24.776;2022-11-02T09:25:59;2;2;
49778;PMS5003;36217;60.232;24.776;2022-11-02T09:28:25;3;2;
49778;PMS5003;36217;60.232;24.776;2022-11-02T09:30:53;4;4;
49778;PMS5003;36217;60.232;24.776;2022-11-02T09:33:19;2;2;
49778;PMS5003;36217;60.232;24.776;2022-11-02T09:35:51;3;3;
49778;PMS5003;36217;60.232;24.776;2022-11-02T09:38:19;2;2;
49778;PMS5003;36217;60.232;24.776;2022-11-02T09:40:49;4;3;
49778;PMS5003;36217;60.232;24.776;2022-11-02T09:43:29;3;3;
49778;PMS5003;36217;60.232;24.776;2022-11-02T09:46:03;6;4;
49778;PMS5003;36217;60.232;24.776;2022-11-02T09:48:34;4;4;
49778;PMS5003;36217;60.232;24.776;2022-11-02T09:51:05;6;4;
49778;PMS5003;36217;60.232;24.776;2022-11-02T09:53:39;4;4;
49778;PMS5003;36217;60.232;24.776;2022-11-02T09:56:10;2;2;
49778;PMS5003;36217;60.232;24.776;2022-11-02T09:58:39;5;5;
49778;PMS5003;36217;60.232;24.776;2022-11-02T10:01:16;5;5;
49778;PMS5003;36217;60.232;24.776;2022-11-02T10:03:55;5;5;
49778;PMS5003;36217;60.232;24.776;2022-11-02T10:06:37;6;6;
49778;PMS5003;36217;60.232;24.776;2022-11-02T10:09:10;6;6;
49778;PMS5003;36217;60.232;24.776;2022-11-02T10:11:44;7;7;
49778;PMS5003;36217;60.232;24.776;2022-11-02T10:14:19;6;5;
49778;PMS5003;36217;60.232;24.776;2022-11-02T10:16:54;13;8;
49778;PMS5003;36217;60.232;24.776;2022-11-02T10:19:26;14;11;
49778;PMS5003;36217;60.232;24.776;2022-11-02T10:21:55;11;7;
49778;PMS5003;36217;60.232;24.776;2022-11-02T10:24:24;10;8;
49778;PMS5003;36217;60.232;24.776;2022-11-02T10:26:58;6;5;
49778;PMS5003;36217;60.232;24.776;2022-11-02T10:29:32;9;9;
49778;PMS5003;36217;60.232;24.776;2022-11-02T10:32:06;9;8;
49778;PMS5003;36217;60.232;24.776;2022-11-02T10:34:35;11;11;
49778;PMS5003;36217;60.232;24.776;2022-11-02T10:37:06;9;9;
49778;PMS5003;36217;60.232;24.776;2022-11-02T10:39:46;8;8;
49778;PMS5003;36217;60.232;24.776;2022-11-02T10:42:32;8;7;
49778;PMS5003;36217;60.232;24.776;2022-11-02T10:45:15;14;11;
49778;PMS5003;36217;60.232;24.776;2022-11-02T10:47:57;8;7;
49778;PMS5003;36217;60.232;24.776;2022-11-02T10:50:31;12;8;
49778;PMS5003;36217;60.232;24.776;2022-11-02T10:53:10;9;8;
49778;PMS5003;36217;60.232;24.776;2022-11-02T10:55:42;7;7;
49778;PMS5003;36217;60.232;24.776;2022-11-02T10:58:18;7;7;
49778;PMS5003;36217;60.232;24.776;2022-11-02T11:00:47;8;7;
49778;PMS5003;36217;60.232;24.776;2022-11-02T11:03:15;6;6;
49778;PMS5003;36217;60.232;24.776;2022-11-02T11:05:53;9;7;
49778;PMS5003;36217;60.232;24.776;2022-11-02T11:08:26;8;8;
49778;PMS5003;36217;60.232;24.776;2022-11-02T11:11:08;9;9;
49778;PMS5003;36217;60.232;24.776;2022-11-02T11:13:36;6;5;
49778;PMS5003;36217;60.232;24.776;2022-11-02T11:16:04;14;11;
49778;PMS5003;36217;60.232;24.776;2022-11-02T11:18:32;7;7;
49778;PMS5003;36217;60.232;24.776;2022-11-02T11:20:59;9;8;
49778;PMS5003;36217;60.232;24.776;2022-11-02T11:23:27;10;7;
49778;PMS5003;36217;60.232;24.776;2022-11-02T11:25:55;11;11;
49778;PMS5003;36217;60.232;24.776;2022-11-02T11:28:25;4;4;
49778;PMS5003;36217;60.232;24.776;2022-11-02T11:31:11;7;6;
49778;PMS5003;36217;60.232;24.776;2022-11-02T11:33:43;8;6;
49778;PMS5003;36217;60.232;24.776;2022-11-02T11:36:22;6;5;
49778;PMS5003;36217;60.232;24.776;2022-11-02T11:38:51;8;6;
49778;PMS5003;36217;60.232;24.776;2022-11-02T11:41:20;9;7;
49778;PMS5003;36217;60.232;24.776;2022-11-02T11:43:48;8;7;
49778;PMS5003;36217;60.232;24.776;2022-11-02T11:46:17;6;5;
49778;PMS5003;36217;60.232;24.776;2022-11-02T11:48:45;6;6;
49778;PMS5003;36217;60.232;24.776;2022-11-02T11:51:23;9;6;
49778;PMS5003;36217;60.232;24.776;2022-11-02T11:54:15;6;6;
49778;PMS5003;36217;60.232;24.776;2022-11-02T11:56:45;6;6;
49778;PMS5003;36217;60.232;24.776;2022-11-02T11:59:28;9;9;
49778;PMS5003;36217;60.232;24.776;2022-11-02T12:02:18;5;5;
49778;PMS5003;36217;60.232;24.776;2022-11-02T12:04:48;8;8;
49778;PMS5003;36217;60.232;24.776;2022-11-02T12:07:20;9;9;
49778;PMS5003;36217;60.232;24.776;2022-11-02T12:09:58;6;6;
49778;PMS5003;36217;60.232;24.776;2022-11-02T12:12:37;6;6;
49778;PMS5003;36217;60.232;24.776;2022-11-02T12:15:18;13;13;
49778;PMS5003;36217;60.232;24.776;2022-11-02T12:18:06;8;7;
49778;PMS5003;36217;60.232;24.776;2022-11-02T12:20:49;11;11;
49778;PMS5003;36217;60.232;24.776;2022-11-02T12:23:30;8;7;
49778;PMS5003;36217;60.232;24.776;2022-11-02T12:26:16;7;6;
49778;PMS5003;36217;60.232;24.776;2022-11-02T12:28:53;10;7;
49778;PMS5003;36217;60.232;24.776;2022-11-02T12:31:30;8;7;
49778;PMS5003;36217;60.232;24.776;2022-11-02T12:34:06;7;7;
49778;PMS5003;36217;60.232;24.776;2022-11-02T12:36:45;7;6;
49778;PMS5003;36217;60.232;24.776;2022-11-02T12:39:23;12;11;
49778;PMS5003;36217;60.232;24.776;2022-11-02T12:42:01;11;7;
49778;PMS5003;36217;60.232;24.776;2022-11-02T12:44:44;11;9;
49778;PMS5003;36217;60.232;24.776;2022-11-02T12:47:21;8;8;
49778;PMS5003;36217;60.232;24.776;2022-11-02T12:50:02;6;6;
49778;PMS5003;36217;60.232;24.776;2022-11-02T12:52:42;5;5;
49778;PMS5003;36217;60.232;24.776;2022-11-02T12:55:19;5;5;
49778;PMS5003;36217;60.232;24.776;2022-11-02T12:57:58;7;7;
49778;PMS5003;36217;60.232;24.776;2022-11-02T13:00:29;5;5;
49778;PMS5003;36217;60.232;24.776;2022-11-02T13:02:58;11;9;
49778;PMS5003;36217;60.232;24.776;2022-11-02T13:05:32;11;11;
49778;PMS5003;36217;60.232;24.776;2022-11-02T13:08:05;5;5;
49778;PMS5003;36217;60.232;24.776;2022-11-02T13:10:40;8;8;
49778;PMS5003;36217;60.232;24.776;2022-11-02T13:13:12;7;5;
49778;PMS5003;36217;60.232;24.776;2022-11-02T13:15:42;8;6;
49778;PMS5003;36217;60.232;24.776;2022-11-02T13:18:13;9;6;
49778;PMS5003;36217;60.232;24.776;2022-11-02T13:20:44;12;11;
49778;PMS5003;36217;60.232;24.776;2022-11-02T13:23:17;8;7;
49778;PMS5003;36217;60.232;24.776;2022-11-02T13:25:52;12;7;
49778;PMS5003;36217;60.232;24.776;2022-11-02T13:28:25;8;8;
49778;PMS5003;36217;60.232;24.776;2022-11-02T13:30:59;8;6;
49778;PMS5003;36217;60.232;24.776;2022-11-02T13:33:29;8;5;
49778;PMS5003;36217;60.232;24.776;2022-11-02T13:36:05;5;5;
49778;PMS5003;36217;60.232;24.776;2022-11-02T13:38:33;5;3;
49778;PMS5003;36217;60.232;24.776;2022-11-02T13:41:25;6;6;
49778;PMS5003;36217;60.232;24.776;2022-11-02T13:45:15;6;5;
49778;PMS5003;36217;60.232;24.776;2022-11-02T13:48:31;7;6;
49778;PMS5003;36217;60.232;24.776;2022-11-02T13:51:05;3;3;
49778;PMS5003;36217;60.232;24.776;2022-11-02T13:53:41;8;6;
49778;PMS5003;36217;60.232;24.776;2022-11-02T13:56:20;6;6;
49778;PMS5003;36217;60.232;24.776;2022-11-02T13:58:52;5;4;
49778;PMS5003;36217;60.232;24.776;2022-11-02T14:01:22;5;5;
49778;PMS5003;36217;60.232;24.776;2022-11-02T14:03:50;3;3;
49778;PMS5003;36217;60.232;24.776;2022-11-02T14:06:20;5;5;
49778;PMS5003;36217;60.232;24.776;2022-11-02T14:08:50;3;3;
49778;PMS5003;36217;60.232;24.776;2022-11-02T14:11:44;4;4;
49778;PMS5003;36217;60.232;24.776;2022-11-02T14:14:15;5;4;
49778;PMS5003;36217;60.232;24.776;2022-11-02T14:17:23;4;4;
49778;PMS5003;36217;60.232;24.776;2022-11-02T14:19:51;3;3;
49778;PMS5003;36217;60.232;24.776;2022-11-02T14:22:20;5;5;
49778;PMS5003;36217;60.232;24.776;2022-11-02T14:25:12;6;6;
49778;PMS5003;36217;60.232;24.776;2022-11-02T14:27:41;5;5;
49778;PMS5003;36217;60.232;24.776;2022-11-02T14:30:41;6;4;
49778;PMS5003;36217;60.232;24.776;2022-11-02T14:33:12;4;4;
49778;PMS5003;36217;60.232;24.776;2022-11-02T14:35:49;4;4;
49778;PMS5003;36217;60.232;24.776;2022-11-02T14:38:27;3;3;
49778;PMS5003;36217;60.232;24.776;2022-11-02T14:41:09;4;4;
49778;PMS5003;36217;60.232;24.776;2022-11-02T14:43:52;6;4;
49778;PMS5003;36217;60.232;24.776;2022-11-02T14:46:33;3;3;
49778;PMS5003;36217;60.232;24.776;2022-11-02T14:49:14;4;4;
49778;PMS5003;36217;60.232;24.776;2022-11-02T14:51:45;3;3;
49778;PMS5003;36217;60.232;24.776;2022-11-02T14:54:22;4;4;
49778;PMS5003;36217;60.232;24.776;2022-11-02T14:56:50;3;2;
49778;PMS5003;36217;60.232;24.776;2022-11-02T14:59:21;3;3;
49778;PMS5003;36217;60.232;24.776;2022-11-02T15:01:53;3;3;
49778;PMS5003;36217;60.232;24.776;2022-11-02T15:04:23;3;3;
49778;PMS5003;36217;60.232;24.776;2022-11-02T15:06:52;4;4;
49778;PMS5003;36217;60.232;24.776;2022-11-02T15:09:54;2;2;
49778;PMS5003;36217;60.232;24.776;2022-11-02T15:12:26;3;3;
49778;PMS5003;36217;60.232;24.776;2022-11-02T15:15:29;2;2;
49778;PMS5003;36217;60.232;24.776;2022-11-02T15:18:02;3;3;
49778;PMS5003;36217;60.232;24.776;2022-11-02T15:21:20;4;3;
49778;PMS5003;36217;60.232;24.776;2022-11-02T15:23:50;4;3;
49778;PMS5003;36217;60.232;24.776;2022-11-02T15:26:25;2;2;
49778;PMS5003;36217;60.232;24.776;2022-11-02T15:28:57;2;2;
49778;PMS5003;36217;60.232;24.776;2022-11-02T15:31:28;4;4;
49778;PMS5003;36217;60.232;24.776;2022-11-02T15:33:56;1;1;
49778;PMS5003;36217;60.232;24.776;2022-11-02T15:36:26;3;3;
49778;PMS5003;36217;60.232;24.776;2022-11-02T15:38:55;3;3;
49778;PMS5003;36217;60.232;24.776;2022-11-02T15:41:24;3;3;
49778;PMS5003;36217;60.232;24.776;2022-11-02T15:44:02;3;3;
49778;PMS5003;36217;60.232;24.776;2022-11-02T15:46:45;2;2;
49778;PMS5003;36217;60.232;24.776;2022-11-02T15:49:25;2;2;
49778;PMS5003;36217;60.232;24.776;2022-11-02T15:52:06;4;3;
49778;PMS5003;36217;60.232;24.776;2022-11-02T15:54:44;3;3;
49778;PMS5003;36217;60.232;24.776;2022-11-02T15:57:22;4;4;
49778;PMS5003;36217;60.232;24.776;2022-11-02T16:00:00;3;3;
49778;PMS5003;36217;60.232;24.776;2022-11-02T16:02:36;3;3;
49778;PMS5003;36217;60.232;24.776;2022-11-02T16:05:05;3;3;
49778;PMS5003;36217;60.232;24.776;2022-11-02T16:07:42;3;3;
49778;PMS5003;36217;60.232;24.776;2022-11-02T16:10:09;5;4;
49778;PMS5003;36217;60.232;24.776;2022-11-02T16:12:38;4;4;
49778;PMS5003;36217;60.232;24.776;2022-11-02T16:15:09;2;2;
49778;PMS5003;36217;60.232;24.776;2022-11-02T16:17:37;3;1;
49778;PMS5003;36217;60.232;24.776;2022-11-02T16:20:09;3;3;
49778;PMS5003;36217;60.232;24.776;2022-11-02T16:22:44;2;2;
49778;PMS5003;36217;60.232;24.776;2022-11-02T16:25:15;2;2;
49778;PMS5003;36217;60.232;24.776;2022-11-02T16:27:46;3;3;
49778;PMS5003;36217;60.232;24.776;2022-11-02T16:30:16;3;3;
49778;PMS5003;36217;60.232;24.776;2022-11-02T16:32:44;3;2;
49778;PMS5003;36217;60.232;24.776;2022-11-02T16:35:14;2;2;
49778;PMS5003;36217;60.232;24.776;2022-11-02T16:37:42;5;5;
49778;PMS5003;36217;60.232;24.776;2022-11-02T16:40:14;3;3;
49778;PMS5003;36217;60.232;24.776;2022-11-02T16:42:44;2;2;
49778;PMS5003;36217;60.232;24.776;2022-11-02T16:45:28;4;4;
49778;PMS5003;36217;60.232;24.776;2022-11-02T16:47:59;5;4;
49778;PMS5003;36217;60.232;24.776;2022-11-02T16:50:26;8;8;
49778;PMS5003;36217;60.232;24.776;2022-11-02T16:52:55;6;4;
49778;PMS5003;36217;60.232;24.776;2022-11-02T16:55:39;8;7;